createdAt,value
2019-05-15T00:00:48.019Z,79.00
2019-05-15T00:03:20.614Z,80.54
2019-05-15T00:05:52.037Z,80.89
2019-05-15T00:08:24.511Z,81.24
2019-05-15T00:10:58.080Z,80.17
2019-05-15T00:13:29.666Z,79.46
2019-05-15T00:16:01.728Z,80.72
2019-05-15T00:18:33.384Z,81.14
2019-05-15T00:21:05.138Z,81.87
2019-05-15T00:23:38.720Z,81.92
2019-05-15T00:26:10.939Z,81.93
2019-05-15T00:28:42.788Z,81.24
2019-05-15T00:31:14.958Z,81.33
2019-05-15T00:33:48.248Z,82.46
2019-05-15T00:36:20.309Z,82.76
2019-05-15T00:38:51.968Z,82.91
2019-05-15T00:41:23.726Z,83.65
2019-05-15T00:43:58.557Z,83.81
2019-05-15T00:46:29.983Z,84.60
2019-05-15T00:49:01.840Z,83.93
2019-05-15T00:51:33.803Z,84.21
2019-05-15T00:54:08.285Z,84.95
2019-05-15T00:56:39.784Z,84.74
2019-05-15T00:59:23.198Z,84.40
2019-05-15T01:01:45.108Z,85.55
2019-05-15T01:04:18.749Z,85.33
2019-05-15T01:06:52.657Z,85.15
2019-05-15T01:09:25.429Z,85.16
2019-05-15T01:11:58.715Z,84.04
2019-05-15T01:14:30.371Z,84.53
2019-05-15T01:17:02.139Z,85.44
2019-05-15T01:19:34.095Z,85.92
2019-05-15T01:22:05.640Z,83.89
2019-05-15T01:24:38.922Z,84.58
2019-05-15T01:27:10.606Z,85.64
2019-05-15T01:29:45.190Z,85.54
2019-05-15T01:32:15.952Z,85.13
2019-05-15T01:34:49.031Z,85.39
2019-05-15T01:37:20.689Z,84.46
2019-05-15T01:39:52.378Z,83.74
2019-05-15T01:42:24.106Z,83.46
2019-05-15T01:44:56.071Z,82.53
2019-05-15T01:47:28.169Z,83.15
2019-05-15T01:49:59.895Z,84.49
2019-05-15T01:52:32.009Z,83.82
2019-05-15T01:55:04.885Z,84.13
2019-05-15T01:57:38.391Z,84.37
2019-05-15T02:00:10.489Z,84.61
2019-05-15T02:02:42.680Z,84.01
2019-05-15T02:05:15.150Z,84.42
2019-05-15T02:07:47.892Z,84.67
2019-05-15T02:10:19.479Z,84.60
2019-05-15T02:12:51.132Z,83.95
2019-05-15T02:15:22.889Z,84.01
2019-05-15T02:17:54.747Z,84.20
2019-05-15T02:20:28.954Z,84.48
2019-05-15T02:22:59.810Z,84.38
2019-05-15T02:25:31.251Z,83.45
2019-05-15T02:28:03.165Z,82.39
2019-05-15T02:30:34.786Z,82.83
2019-05-15T02:33:10.079Z,82.83
2019-05-15T02:35:39.967Z,83.03
2019-05-15T02:38:15.379Z,82.48
2019-05-15T02:40:44.561Z,81.82
2019-05-15T02:43:19.015Z,80.53
2019-05-15T02:45:50.845Z,81.26
2019-05-15T02:48:22.502Z,80.29
2019-05-15T02:50:54.964Z,81.20
2019-05-15T02:53:29.923Z,81.04
2019-05-15T02:56:00.838Z,81.41
2019-05-15T02:58:32.392Z,81.80
2019-05-15T03:01:04.456Z,81.60
2019-05-15T03:03:38.749Z,81.51
2019-05-15T03:06:10.205Z,80.47
2019-05-15T03:08:41.770Z,80.24
2019-05-15T03:11:13.767Z,80.17
2019-05-15T03:13:46.108Z,80.06
2019-05-15T03:16:19.384Z,79.84
2019-05-15T03:18:55.265Z,78.24
2019-05-15T03:21:24.147Z,77.83
2019-05-15T03:23:59.252Z,76.36
2019-05-15T03:26:30.088Z,75.65
2019-05-15T03:29:01.980Z,75.06
2019-05-15T03:31:49.424Z,73.83
2019-05-15T03:34:19.293Z,73.15
2019-05-15T03:36:44.948Z,72.16
2019-05-15T03:39:14.435Z,74.41
2019-05-15T03:41:49.539Z,74.35
2019-05-15T03:44:20.057Z,73.48
2019-05-15T03:46:51.754Z,73.37
2019-05-15T03:49:23.506Z,71.11
2019-05-15T03:51:55.305Z,70.21
2019-05-15T03:54:29.313Z,69.65
2019-05-15T03:57:00.214Z,71.39
2019-05-15T03:59:31.781Z,72.04
2019-05-15T04:02:03.970Z,70.76
2019-05-15T04:04:38.629Z,71.18
2019-05-15T04:07:10.009Z,69.68
2019-05-15T04:09:41.460Z,68.25
2019-05-15T04:12:13.229Z,67.30
2019-05-15T04:14:45.284Z,67.93
2019-05-15T04:17:19.721Z,68.65
2019-05-15T04:19:49.927Z,68.31
2019-05-15T04:22:21.786Z,67.84
2019-05-15T04:24:54.879Z,67.65
2019-05-15T04:27:29.012Z,66.41
2019-05-15T04:30:00.741Z,66.01
2019-05-15T04:32:33.110Z,65.91
2019-05-15T04:35:09.217Z,65.99
2019-05-15T04:37:41.295Z,64.40
2019-05-15T04:40:13.507Z,64.72
2019-05-15T04:42:45.462Z,64.48
2019-05-15T04:45:19.453Z,63.33
2019-05-15T04:47:50.725Z,62.10
2019-05-15T04:50:22.276Z,63.59
2019-05-15T04:52:54.393Z,61.30
2019-05-15T04:55:28.974Z,61.21
2019-05-15T04:57:59.714Z,61.51
2019-05-15T05:00:49.698Z,62.29
2019-05-15T05:03:22.240Z,61.97
2019-05-15T05:05:54.016Z,61.20
2019-05-15T05:08:30.386Z,59.27
2019-05-15T05:11:01.727Z,60.11
2019-05-15T05:13:34.619Z,59.50
2019-05-15T05:16:09.219Z,58.63
2019-05-15T05:18:41.674Z,58.68
2019-05-15T05:21:13.566Z,58.38
2019-05-15T05:23:45.476Z,58.83
2019-05-15T05:26:18.517Z,58.13
2019-05-15T05:28:50.279Z,58.59
2019-05-15T05:31:21.927Z,58.63
2019-05-15T05:33:53.786Z,57.16
2019-05-15T05:36:27.900Z,56.27
2019-05-15T05:38:59.555Z,55.47
2019-05-15T05:41:31.324Z,56.20
2019-05-15T05:44:03.587Z,54.37
2019-05-15T05:46:35.036Z,54.24
2019-05-15T05:49:08.076Z,53.57
2019-05-15T05:51:39.777Z,54.00
2019-05-15T05:54:12.247Z,52.22
2019-05-15T05:56:44.019Z,52.14
2019-05-15T05:59:15.705Z,51.32
2019-05-15T06:01:48.547Z,51.93
2019-05-15T06:04:20.201Z,51.66
2019-05-15T06:07:05.910Z,51.28
2019-05-15T06:09:27.652Z,53.30
2019-05-15T06:11:59.264Z,52.50
2019-05-15T06:14:30.816Z,51.43
2019-05-15T06:17:02.469Z,51.03
2019-05-15T06:19:34.430Z,50.81
2019-05-15T06:22:08.592Z,52.20
2019-05-15T06:24:39.279Z,50.19
2019-05-15T06:27:11.036Z,50.44
2019-05-15T06:29:42.995Z,50.16
2019-05-15T06:32:14.446Z,49.94
2019-05-15T06:34:48.368Z,50.06
2019-05-15T06:37:19.845Z,49.40
2019-05-15T06:39:51.567Z,52.49
2019-05-15T06:42:23.076Z,52.64
2019-05-15T06:44:54.466Z,50.81
2019-05-15T06:47:28.336Z,50.66
2019-05-15T06:49:59.105Z,50.32
2019-05-15T06:52:30.770Z,50.17
2019-05-15T06:55:02.623Z,51.08
2019-05-15T06:57:34.580Z,50.25
2019-05-15T07:00:08.426Z,49.29
2019-05-15T07:02:40.758Z,49.22
2019-05-15T07:05:12.628Z,49.01
2019-05-15T07:07:44.167Z,48.06
2019-05-15T07:10:16.017Z,47.74
2019-05-15T07:12:51.002Z,47.21
2019-05-15T07:15:21.078Z,46.77
2019-05-15T07:17:52.534Z,45.91
2019-05-15T07:20:24.376Z,45.41
2019-05-15T07:22:58.444Z,45.18
2019-05-15T07:25:29.409Z,45.51
2019-05-15T07:28:01.098Z,45.33
2019-05-15T07:30:32.752Z,45.88
2019-05-15T07:33:04.302Z,46.21
2019-05-15T07:35:38.473Z,45.70
2019-05-15T07:38:09.556Z,47.14
2019-05-15T07:40:41.113Z,47.95
2019-05-15T07:43:13.077Z,48.18
2019-05-15T07:45:44.917Z,48.47
2019-05-15T07:48:18.480Z,48.25
2019-05-15T07:50:50.037Z,48.74
2019-05-15T07:53:21.847Z,46.75
2019-05-15T07:55:53.510Z,44.70
2019-05-15T07:58:25.053Z,44.47
2019-05-15T08:00:58.984Z,44.39
2019-05-15T08:03:31.134Z,44.72
2019-05-15T08:06:03.269Z,45.90
2019-05-15T08:08:34.949Z,47.48
2019-05-15T08:11:17.517Z,46.02
2019-05-15T08:13:39.904Z,46.02
2019-05-15T08:16:11.856Z,45.47
2019-05-15T08:18:43.409Z,44.21
2019-05-15T08:21:15.112Z,44.06
2019-05-15T08:23:48.434Z,44.01
2019-05-15T08:26:20.323Z,45.43
2019-05-15T08:28:51.892Z,44.61
2019-05-15T08:31:23.731Z,43.90
2019-05-15T08:34:09.092Z,44.31
2019-05-15T08:36:31.271Z,44.76
2019-05-15T08:39:04.752Z,44.21
2019-05-15T08:41:38.835Z,44.89
2019-05-15T08:44:09.989Z,45.31
2019-05-15T08:46:44.302Z,44.94
2019-05-15T08:49:14.942Z,46.32
2019-05-15T08:51:48.635Z,46.96
2019-05-15T08:54:20.398Z,45.28
2019-05-15T08:56:51.976Z,45.13
2019-05-15T08:59:23.710Z,44.91
2019-05-15T09:01:55.684Z,45.38
2019-05-15T09:04:33.890Z,46.22
2019-05-15T09:07:01.253Z,46.59
2019-05-15T09:09:34.016Z,46.75
2019-05-15T09:12:08.254Z,46.05
2019-05-15T09:14:39.891Z,45.27
2019-05-15T09:17:11.958Z,45.29
2019-05-15T09:19:43.658Z,45.90
2019-05-15T09:22:15.686Z,44.78
2019-05-15T09:24:48.867Z,45.36
2019-05-15T09:27:20.616Z,45.25
2019-05-15T09:29:52.482Z,41.86
2019-05-15T09:32:24.237Z,42.62
2019-05-15T09:34:59.003Z,42.05
2019-05-15T09:37:29.389Z,42.43
2019-05-15T09:40:01.355Z,43.82
2019-05-15T09:42:38.711Z,44.05
2019-05-15T09:45:09.786Z,43.52
2019-05-15T09:47:41.294Z,43.49
2019-05-15T09:50:13.052Z,42.70
2019-05-15T09:52:44.751Z,42.72
2019-05-15T09:55:18.003Z,43.28
2019-05-15T09:57:49.701Z,42.85
2019-05-15T10:00:22.519Z,43.30
2019-05-15T10:02:54.449Z,43.82
2019-05-15T10:05:28.001Z,43.40
2019-05-15T10:07:59.490Z,42.88
2019-05-15T10:10:31.350Z,42.56
2019-05-15T10:13:03.415Z,41.12
2019-05-15T10:15:34.970Z,42.06
2019-05-15T10:18:09.734Z,41.44
2019-05-15T10:20:40.126Z,41.79
2019-05-15T10:23:11.913Z,42.76
2019-05-15T10:25:43.838Z,41.89
2019-05-15T10:28:18.662Z,41.82
2019-05-15T10:30:49.756Z,40.77
2019-05-15T10:33:21.878Z,41.94
2019-05-15T10:35:53.321Z,41.54
2019-05-15T10:38:25.385Z,40.50
2019-05-15T10:41:07.964Z,40.12
2019-05-15T10:43:30.029Z,39.82
2019-05-15T10:46:01.698Z,40.11
2019-05-15T10:48:34.565Z,40.44
2019-05-15T10:51:09.762Z,40.48
2019-05-15T10:53:40.597Z,37.10
2019-05-15T10:56:12.314Z,36.31
2019-05-15T10:58:43.745Z,34.03
2019-05-15T11:01:16.081Z,35.75
2019-05-15T11:03:49.540Z,36.17
2019-05-15T11:06:20.761Z,36.61
2019-05-15T11:08:52.623Z,36.69
2019-05-15T11:11:24.073Z,36.96
2019-05-15T11:14:00.267Z,35.83
2019-05-15T11:16:28.947Z,36.08
2019-05-15T11:19:00.679Z,38.07
2019-05-15T11:21:32.640Z,37.74
2019-05-15T11:24:04.398Z,38.18
2019-05-15T11:26:36.051Z,38.78
2019-05-15T11:29:09.662Z,39.15
2019-05-15T11:31:41.099Z,38.90
2019-05-15T11:34:12.855Z,39.53
2019-05-15T11:36:44.521Z,39.91
2019-05-15T11:39:18.252Z,40.83
2019-05-15T11:41:50.096Z,40.44
2019-05-15T11:44:21.732Z,39.45
2019-05-15T11:46:53.494Z,39.84
2019-05-15T11:49:25.041Z,40.01
2019-05-15T11:52:00.674Z,41.12
2019-05-15T11:54:31.220Z,39.87
2019-05-15T11:57:02.869Z,40.84
2019-05-15T11:59:34.837Z,40.38
2019-05-15T12:02:08.535Z,39.88
2019-05-15T12:04:40.497Z,39.38
2019-05-15T12:07:12.255Z,39.87
2019-05-15T12:09:43.703Z,39.87
2019-05-15T12:12:15.153Z,38.89
2019-05-15T12:14:49.614Z,39.30
2019-05-15T12:17:20.100Z,40.01
2019-05-15T12:19:58.408Z,40.00
2019-05-15T12:22:24.920Z,40.22
2019-05-15T12:25:00.147Z,39.48
2019-05-15T12:27:29.511Z,39.82
2019-05-15T12:30:01.371Z,40.38
2019-05-15T12:32:36.830Z,40.69
2019-05-15T12:35:07.873Z,39.84
2019-05-15T13:00:42.104Z,39.91
2019-05-15T13:03:14.373Z,40.89
2019-05-15T13:05:48.394Z,41.14
2019-05-15T13:08:19.729Z,40.98
2019-05-15T13:10:51.184Z,42.02
2019-05-15T13:13:23.143Z,42.89
2019-05-15T13:15:54.806Z,43.12
2019-05-15T13:18:28.453Z,42.77
2019-05-15T13:20:59.809Z,42.92
2019-05-15T13:23:31.627Z,43.67
2019-05-15T13:26:03.793Z,42.96
2019-05-15T13:28:35.728Z,42.59
2019-05-15T13:31:09.173Z,43.68
2019-05-15T13:33:41.090Z,43.00
2019-05-15T13:36:12.437Z,42.84
2019-05-15T13:38:44.188Z,42.36
2019-05-15T13:41:18.935Z,42.64
2019-05-15T13:43:50.159Z,42.18
2019-05-15T13:46:21.945Z,42.48
2019-05-15T13:48:53.985Z,43.47
2019-05-15T13:51:25.843Z,43.73
2019-05-15T13:53:57.811Z,43.77
2019-05-15T13:56:29.464Z,44.47
2019-05-15T13:59:02.348Z,44.09
2019-05-15T14:01:34.363Z,44.46
2019-05-15T14:04:08.579Z,44.75
2019-05-15T14:06:40.894Z,43.01
2019-05-15T14:09:12.449Z,43.47
2019-05-15T14:11:44.409Z,43.12
2019-05-15T14:14:15.767Z,43.05
2019-05-15T14:16:49.131Z,43.35
2019-05-15T14:19:20.805Z,42.76
2019-05-15T14:21:52.565Z,42.79
2019-05-15T14:24:24.628Z,43.83
2019-05-15T14:26:59.146Z,43.91
2019-05-15T14:29:30.089Z,44.09
2019-05-15T14:32:02.767Z,44.42
2019-05-15T14:34:34.526Z,44.65
2019-05-15T14:37:08.525Z,43.69
2019-05-15T14:39:39.188Z,43.37
2019-05-15T14:42:10.822Z,43.77
2019-05-15T14:44:42.574Z,43.94
2019-05-15T14:47:14.237Z,44.34
2019-05-15T14:49:49.277Z,43.56
2019-05-15T14:52:19.399Z,43.78
2019-05-15T14:54:50.841Z,44.00
2019-05-15T14:57:22.696Z,42.94
2019-05-15T14:59:54.480Z,43.17
2019-05-15T15:02:26.732Z,43.52
2019-05-15T15:04:59.471Z,42.66
2019-05-15T15:07:31.978Z,42.83
2019-05-15T15:10:04.920Z,42.97
2019-05-15T15:12:39.177Z,42.90
2019-05-15T15:15:10.709Z,43.26
2019-05-15T15:17:42.693Z,43.21
2019-05-15T15:20:14.864Z,42.96
2019-05-15T15:22:48.596Z,42.58
2019-05-15T15:25:20.219Z,43.02
2019-05-15T15:27:52.076Z,42.64
2019-05-15T15:30:24.043Z,43.01
2019-05-15T15:32:57.613Z,42.39
2019-05-15T15:35:28.998Z,42.57
2019-05-15T15:38:01.571Z,42.89
2019-05-15T15:40:33.322Z,42.96
2019-05-15T15:43:05.396Z,42.82
2019-05-15T15:45:39.016Z,42.76
2019-05-15T15:48:10.047Z,42.82
2019-05-15T15:50:41.578Z,43.12
2019-05-15T15:53:13.698Z,43.06
2019-05-15T15:55:45.611Z,43.32
2019-05-15T15:58:19.712Z,42.97
2019-05-15T16:00:50.327Z,43.30
2019-05-15T16:03:21.750Z,43.23
2019-05-15T16:05:53.331Z,43.22
2019-05-15T16:08:24.819Z,43.04
2019-05-15T16:10:56.186Z,43.57
2019-05-15T16:13:29.199Z,43.67
2019-05-15T16:16:00.913Z,43.48
2019-05-15T16:18:32.520Z,44.12
2019-05-15T16:21:04.027Z,44.02
2019-05-15T16:23:42.677Z,44.17
2019-05-15T16:26:14.050Z,44.15
2019-05-15T16:28:45.483Z,44.63
2019-05-15T16:31:18.630Z,44.79
2019-05-15T16:33:50.346Z,45.63
2019-05-15T16:36:21.873Z,45.44
2019-05-15T16:39:05.320Z,45.97
2019-05-15T16:41:28.838Z,46.12
2019-05-15T16:43:59.781Z,46.68
2019-05-15T16:46:31.285Z,46.87
2019-05-15T16:49:03.010Z,47.01
2019-05-15T16:51:34.444Z,46.98
2019-05-15T16:54:08.429Z,46.80
2019-05-15T16:56:40.243Z,46.80
2019-05-15T16:59:11.948Z,47.31
2019-05-15T17:01:44.101Z,47.73
2019-05-15T17:04:18.031Z,48.14
2019-05-15T17:06:49.461Z,48.62
2019-05-15T17:09:21.868Z,48.92
2019-05-15T17:11:53.821Z,49.25
2019-05-15T17:14:28.807Z,49.52
2019-05-15T17:16:59.585Z,50.30
2019-05-15T17:19:31.086Z,50.98
2019-05-15T17:22:02.544Z,51.57
2019-05-15T17:24:33.929Z,52.76
2019-05-15T17:27:05.488Z,53.30
2019-05-15T17:29:38.510Z,54.97
2019-05-15T17:32:10.028Z,55.84
2019-05-15T17:34:41.429Z,55.55
2019-05-15T17:37:12.795Z,56.28
2019-05-15T17:39:44.227Z,56.54
2019-05-15T17:42:18.209Z,56.91
2019-05-15T17:44:49.694Z,57.30
2019-05-15T17:47:21.013Z,57.74
2019-05-15T17:49:51.600Z,58.73
2019-05-15T17:52:23.149Z,58.40
2019-05-15T17:54:54.944Z,59.48
2019-05-15T17:57:28.458Z,59.19
2019-05-15T17:59:59.875Z,58.69
2019-05-15T18:02:31.930Z,58.19
2019-05-15T18:05:04.958Z,58.43
2019-05-15T18:07:38.849Z,59.59
2019-05-15T18:10:10.423Z,56.62
2019-05-15T18:12:42.016Z,59.91
2019-05-15T18:15:14.071Z,61.07
2019-05-15T18:17:47.921Z,61.67
2019-05-15T18:20:29.440Z,62.00
2019-05-15T18:23:01.790Z,62.30
2019-05-15T18:25:33.252Z,59.34
2019-05-15T18:28:05.046Z,61.26
2019-05-15T18:30:38.858Z,61.74
2019-05-15T18:33:10.177Z,62.13
2019-05-15T18:35:41.706Z,62.00
2019-05-15T18:38:13.083Z,61.60
2019-05-15T18:40:44.544Z,61.67
2019-05-15T18:43:17.986Z,60.54
2019-05-15T18:45:49.424Z,61.45
2019-05-15T18:48:20.848Z,59.60
2019-05-15T18:50:52.124Z,59.00
2019-05-15T18:53:24.006Z,58.21
2019-05-15T18:55:55.529Z,59.01
2019-05-15T18:58:26.993Z,59.67
2019-05-15T19:00:59.315Z,62.68
2019-05-15T19:03:31.271Z,62.80
2019-05-15T19:06:02.964Z,63.47
2019-05-15T19:08:35.381Z,60.57
2019-05-15T19:11:07.044Z,60.89
2019-05-15T19:13:38.944Z,58.77
2019-05-15T19:16:10.693Z,61.29
2019-05-15T19:18:42.358Z,61.66
2019-05-15T19:21:13.902Z,60.56
2019-05-15T19:23:47.346Z,60.41
2019-05-15T19:26:18.519Z,59.89
2019-05-15T19:28:49.170Z,59.51
2019-05-15T19:31:26.618Z,60.70
2019-05-15T19:33:53.729Z,59.28
2019-05-15T19:36:24.335Z,60.95
2019-05-15T19:38:55.473Z,62.54
2019-05-15T19:41:28.865Z,63.16
2019-05-15T19:44:00.894Z,63.82
2019-05-15T19:46:32.470Z,64.34
2019-05-15T19:49:04.225Z,64.27
2019-05-15T19:51:38.111Z,65.04
2019-05-15T19:54:10.196Z,65.97
2019-05-15T19:56:42.836Z,66.24
2019-05-15T19:59:14.493Z,66.85
2019-05-15T20:01:48.480Z,67.86
2019-05-15T20:04:19.500Z,68.01
2019-05-15T20:06:51.040Z,68.59
2019-05-15T20:09:22.563Z,68.83
2019-05-15T20:11:53.918Z,68.98
2019-05-15T20:14:25.528Z,69.02
2019-05-15T20:16:58.918Z,68.66
2019-05-15T20:19:30.773Z,68.93
2019-05-15T20:22:02.459Z,68.43
2019-05-15T20:24:34.468Z,62.11
2019-05-15T20:27:05.149Z,60.12
2019-05-15T20:29:38.293Z,59.38
2019-05-15T20:32:09.689Z,59.32
2019-05-15T20:34:41.182Z,59.11
2019-05-15T20:37:11.843Z,59.01
2019-05-15T20:39:43.062Z,58.85
2019-05-15T20:42:14.472Z,58.70
2019-05-15T20:44:48.419Z,58.22
2019-05-15T20:47:19.427Z,59.95
2019-05-15T20:49:50.724Z,57.80
2019-05-15T20:52:21.858Z,57.83
2019-05-15T20:54:53.261Z,58.44
2019-05-15T20:57:24.703Z,58.96
2019-05-15T20:59:58.562Z,58.78
2019-05-15T21:02:29.952Z,58.87
2019-05-15T21:05:01.426Z,59.24
2019-05-15T21:07:38.096Z,59.60
2019-05-15T21:10:08.578Z,59.80
2019-05-15T21:12:41.445Z,59.74
2019-05-15T21:15:14.323Z,59.90
2019-05-15T21:17:55.128Z,60.01
2019-05-15T21:20:19.399Z,61.46
2019-05-15T21:22:50.904Z,62.17
2019-05-15T21:25:21.550Z,62.32
2019-05-15T21:27:52.651Z,62.75
2019-05-15T21:30:24.115Z,63.16
2019-05-15T21:32:58.090Z,63.48
2019-05-15T21:35:30.574Z,64.05
2019-05-15T21:38:01.953Z,64.80
2019-05-15T21:40:33.511Z,65.20
2019-05-15T21:43:05.088Z,65.36
2019-05-15T21:45:37.643Z,66.26
2019-05-15T21:48:09.722Z,66.63
2019-05-15T21:50:40.397Z,66.58
2019-05-15T21:53:11.619Z,66.37
2019-05-15T21:55:43.232Z,65.98
2019-05-15T21:58:13.913Z,65.68
2019-05-15T22:00:48.582Z,65.46
2019-05-15T22:03:20.963Z,65.17
2019-05-15T22:05:52.556Z,65.04
2019-05-15T22:08:24.417Z,65.67
2019-05-15T22:10:55.973Z,66.46
2019-05-15T22:13:28.620Z,67.31
2019-05-15T22:16:00.742Z,67.76
2019-05-15T22:18:32.340Z,68.09
2019-05-15T22:21:04.005Z,68.21
2019-05-15T22:23:34.629Z,68.41
2019-05-15T22:26:05.942Z,68.49
2019-05-15T22:28:38.629Z,67.95
2019-05-15T22:31:11.440Z,68.10
2019-05-15T22:33:42.930Z,67.69
2019-05-15T22:36:14.577Z,67.26
2019-05-15T22:38:45.248Z,67.24
2019-05-15T22:41:18.765Z,67.06
2019-05-15T22:43:49.320Z,67.13
2019-05-15T22:46:19.964Z,67.19
2019-05-15T22:48:51.085Z,67.56
2019-05-15T22:51:22.690Z,67.75
2019-05-15T22:53:53.627Z,68.19
2019-05-15T22:56:24.770Z,68.79
2019-05-15T22:58:55.440Z,69.24
2019-05-15T23:01:26.721Z,69.69
2019-05-15T23:03:58.577Z,70.42
2019-05-15T23:06:30.155Z,71.36
2019-05-15T23:09:01.672Z,71.62
2019-05-15T23:11:34.620Z,72.00
2019-05-15T23:14:08.158Z,72.29
2019-05-15T23:16:39.289Z,72.51
2019-05-15T23:19:10.624Z,72.75
2019-05-15T23:21:42.075Z,73.06
2019-05-15T23:24:13.861Z,73.48
2019-05-15T23:26:47.658Z,73.47
2019-05-15T23:29:19.213Z,73.25
2019-05-15T23:31:50.871Z,73.29
2019-05-15T23:34:22.431Z,73.64
2019-05-15T23:36:53.977Z,74.62
2019-05-15T23:39:25.545Z,75.26
2019-05-15T23:41:58.463Z,75.54
2019-05-15T23:44:29.890Z,76.31
2019-05-15T23:47:01.244Z,76.39
2019-05-15T23:49:31.754Z,75.04
2019-05-15T23:52:03.105Z,73.87
2019-05-15T23:54:34.639Z,73.97
2019-05-15T23:57:05.254Z,73.96
2019-05-15T23:59:38.292Z,74.00
